createdAt,value
2022-11-09T00:01:02.596Z,88.31
2022-11-09T00:03:30.165Z,88.84
2022-11-09T00:05:58.790Z,89.17
2022-11-09T00:08:26.545Z,89.79
2022-11-09T00:10:54.237Z,89.70
2022-11-09T00:13:22.920Z,90.30
2022-11-09T00:15:52.167Z,93.70
2022-11-09T00:18:19.723Z,97.03
2022-11-09T00:20:48.437Z,97.08
2022-11-09T00:23:17.023Z,99.40
2022-11-09T00:25:45.171Z,100.00
2022-11-09T00:28:12.953Z,100.00
2022-11-09T00:30:40.784Z,100.00
2022-11-09T00:33:11.088Z,100.00
2022-11-09T00:35:39.687Z,100.00
2022-11-09T00:38:07.467Z,100.00
2022-11-09T00:40:35.109Z,100.00
2022-11-09T00:43:02.737Z,100.00
2022-11-09T00:45:30.355Z,100.00
2022-11-09T00:47:57.943Z,100.00
2022-11-09T00:50:26.945Z,100.00
2022-11-09T00:52:54.561Z,100.00
2022-11-09T00:55:23.925Z,100.00
2022-11-09T00:57:52.366Z,100.00
2022-11-09T01:00:20.843Z,100.00
2022-11-09T01:02:48.738Z,100.00
2022-11-09T01:05:16.469Z,100.00
2022-11-09T01:07:45.490Z,100.00
2022-11-09T01:10:13.448Z,100.00
2022-11-09T01:12:41.128Z,100.00
2022-11-09T01:15:09.698Z,100.00
2022-11-09T01:17:37.308Z,100.00
2022-11-09T01:20:05.335Z,100.00
2022-11-09T01:22:32.960Z,100.00
2022-11-09T01:25:01.905Z,100.00
2022-11-09T01:27:29.508Z,100.00
2022-11-09T01:29:57.167Z,100.00
2022-11-09T01:32:24.839Z,100.00
2022-11-09T01:34:52.782Z,100.00
2022-11-09T01:37:20.420Z,100.00
2022-11-09T01:39:48.059Z,100.00
2022-11-09T01:42:24.172Z,100.00
2022-11-09T01:45:22.095Z,100.00
2022-11-09T01:47:53.591Z,100.00
2022-11-09T01:50:28.630Z,100.00
2022-11-09T01:52:56.463Z,100.00
2022-11-09T01:55:25.422Z,100.00
2022-11-09T01:57:58.190Z,100.00
2022-11-09T02:00:26.027Z,100.00
2022-11-09T02:02:58.423Z,100.00
2022-11-09T02:05:32.767Z,100.00
2022-11-09T02:08:02.832Z,100.00
2022-11-09T02:10:35.938Z,100.00
2022-11-09T02:13:06.431Z,100.00
2022-11-09T02:15:34.223Z,100.00
2022-11-09T02:18:02.470Z,100.00
2022-11-09T02:20:31.633Z,100.00
2022-11-09T02:22:59.252Z,100.00
2022-11-09T02:25:26.900Z,100.00
2022-11-09T02:27:54.684Z,100.00
2022-11-09T02:30:22.603Z,100.00
2022-11-09T02:32:50.212Z,100.00
2022-11-09T02:35:17.886Z,100.00
2022-11-09T02:37:49.938Z,100.00
2022-11-09T02:40:21.699Z,100.00
2022-11-09T02:42:49.442Z,100.00
2022-11-09T02:45:17.229Z,100.00
2022-11-09T02:47:45.096Z,100.00
2022-11-09T02:50:12.740Z,100.00
2022-11-09T02:52:40.344Z,100.00
2022-11-09T02:55:10.311Z,100.00
2022-11-09T02:57:37.939Z,100.00
2022-11-09T03:00:06.965Z,100.00
2022-11-09T03:02:34.628Z,100.00
2022-11-09T03:05:02.220Z,100.00
2022-11-09T03:07:29.863Z,100.00
2022-11-09T03:09:57.506Z,100.00
2022-11-09T03:12:32.138Z,100.00
2022-11-09T03:15:01.556Z,100.00
2022-11-09T03:17:29.303Z,100.00
2022-11-09T03:19:56.900Z,100.00
2022-11-09T03:22:24.533Z,100.00
2022-11-09T03:24:52.168Z,100.00
2022-11-09T03:27:20.066Z,100.00
2022-11-09T03:29:49.025Z,100.00
2022-11-09T03:32:16.643Z,100.00
2022-11-09T03:34:44.402Z,100.00
2022-11-09T03:37:12.227Z,100.00
2022-11-09T03:39:39.870Z,100.00
2022-11-09T03:42:07.552Z,100.00
2022-11-09T03:44:35.144Z,100.00
2022-11-09T03:47:04.103Z,100.00
2022-11-09T03:49:31.691Z,100.00
2022-11-09T03:51:59.321Z,100.00
2022-11-09T03:54:26.899Z,100.00
2022-11-09T03:56:54.517Z,100.00
2022-11-09T03:59:22.162Z,100.00
2022-11-09T04:01:49.818Z,100.00
2022-11-09T04:04:18.776Z,100.00
2022-11-09T04:06:46.443Z,100.00
2022-11-09T04:09:14.047Z,100.00
2022-11-09T04:11:41.613Z,100.00
2022-11-09T04:14:09.201Z,100.00
2022-11-09T04:16:36.828Z,100.00
2022-11-09T04:19:04.419Z,100.00
2022-11-09T04:21:34.139Z,100.00
2022-11-09T04:24:01.757Z,100.00
2022-11-09T04:26:29.366Z,100.00
2022-11-09T04:28:56.997Z,100.00
2022-11-09T04:31:28.040Z,100.00
2022-11-09T04:33:56.036Z,100.00
2022-11-09T04:36:23.980Z,100.00
2022-11-09T04:38:52.935Z,100.00
2022-11-09T04:41:20.518Z,100.00
2022-11-09T04:43:48.412Z,100.00
2022-11-09T04:46:16.101Z,100.00
2022-11-09T04:48:44.333Z,100.00
2022-11-09T04:51:12.268Z,100.00
2022-11-09T04:53:40.464Z,100.00
2022-11-09T04:56:09.998Z,100.00
2022-11-09T04:58:37.724Z,100.00
2022-11-09T05:01:06.432Z,100.00
2022-11-09T05:03:34.390Z,100.00
2022-11-09T05:06:22.420Z,100.00
2022-11-09T05:08:50.048Z,100.00
2022-11-09T05:11:19.280Z,100.00
2022-11-09T05:13:47.030Z,100.00
2022-11-09T05:16:17.402Z,100.00
2022-11-09T05:18:45.011Z,100.00
2022-11-09T05:21:12.891Z,100.00
2022-11-09T05:23:58.640Z,100.00
2022-11-09T05:26:29.140Z,100.00
2022-11-09T05:28:57.614Z,100.00
2022-11-09T05:31:25.481Z,100.00
2022-11-09T05:33:53.861Z,100.00
2022-11-09T05:36:22.135Z,100.00
2022-11-09T05:38:50.180Z,100.00
2022-11-09T05:41:17.869Z,100.00
2022-11-09T05:43:47.195Z,100.00
2022-11-09T05:46:15.719Z,100.00
2022-11-09T05:48:44.051Z,100.00
2022-11-09T05:51:13.774Z,100.00
2022-11-09T05:53:46.104Z,100.00
2022-11-09T05:56:15.155Z,100.00
2022-11-09T05:58:43.141Z,100.00
2022-11-09T06:01:13.952Z,100.00
2022-11-09T06:03:43.585Z,100.00
2022-11-09T06:06:13.462Z,100.00
2022-11-09T06:08:41.607Z,100.00
2022-11-09T06:11:16.774Z,100.00
2022-11-09T06:13:49.331Z,100.00
2022-11-09T06:16:18.404Z,100.00
2022-11-09T06:18:46.057Z,100.00
2022-11-09T06:21:13.801Z,100.00
2022-11-09T06:23:41.406Z,100.00
2022-11-09T06:26:10.602Z,100.00
2022-11-09T06:28:39.185Z,100.00
2022-11-09T06:31:09.060Z,100.00
2022-11-09T06:33:38.220Z,100.00
2022-11-09T06:36:06.688Z,100.00
2022-11-09T06:38:34.476Z,100.00
2022-11-09T06:41:02.435Z,100.00
2022-11-09T06:43:30.407Z,100.00
2022-11-09T06:45:58.467Z,100.00
2022-11-09T06:48:26.139Z,100.00
2022-11-09T06:50:55.094Z,100.00
2022-11-09T06:53:23.992Z,100.00
2022-11-09T06:55:51.846Z,100.00
2022-11-09T06:58:20.069Z,100.00
2022-11-09T07:00:47.919Z,100.00
2022-11-09T07:03:16.355Z,100.00
2022-11-09T07:05:44.505Z,100.00
2022-11-09T07:08:14.240Z,100.00
2022-11-09T07:10:42.413Z,100.00
2022-11-09T07:13:10.962Z,100.00
2022-11-09T07:15:39.731Z,100.00
2022-11-09T07:18:11.127Z,100.00
2022-11-09T07:20:38.850Z,100.00
2022-11-09T07:23:06.614Z,100.00
2022-11-09T07:25:35.894Z,100.00
2022-11-09T07:28:04.743Z,100.00
2022-11-09T07:30:32.602Z,100.00
2022-11-09T07:33:15.434Z,100.00
2022-11-09T07:35:43.273Z,100.00
2022-11-09T07:38:11.497Z,100.00
2022-11-09T07:40:40.784Z,100.00
2022-11-09T07:43:08.788Z,100.00
2022-11-09T07:45:36.707Z,100.00
2022-11-09T07:48:06.589Z,100.00
2022-11-09T07:50:35.474Z,100.00
2022-11-09T07:53:03.810Z,100.00
2022-11-09T07:55:31.559Z,100.00
2022-11-09T07:58:02.273Z,100.00
2022-11-09T08:00:31.757Z,100.00
2022-11-09T08:02:59.607Z,100.00
2022-11-09T08:05:27.908Z,100.00
2022-11-09T08:07:56.361Z,100.00
2022-11-09T08:10:24.982Z,100.00
2022-11-09T08:12:56.833Z,100.00
2022-11-09T08:15:26.549Z,100.00
2022-11-09T08:17:54.662Z,100.00
2022-11-09T08:20:22.633Z,100.00
2022-11-09T08:22:50.307Z,100.00
2022-11-09T08:25:18.181Z,100.00
2022-11-09T08:27:45.862Z,100.00
2022-11-09T08:30:16.037Z,100.00
2022-11-09T08:32:46.047Z,100.00
2022-11-09T08:35:17.654Z,100.00
2022-11-09T08:37:46.844Z,100.00
2022-11-09T08:40:16.484Z,100.00
2022-11-09T08:42:44.764Z,100.00
2022-11-09T08:45:13.142Z,100.00
2022-11-09T08:47:41.118Z,100.00
2022-11-09T08:50:12.386Z,100.00
2022-11-09T08:52:40.764Z,100.00
2022-11-09T08:55:09.517Z,99.54
2022-11-09T08:57:37.155Z,99.19
2022-11-09T09:00:06.184Z,98.70
2022-11-09T09:02:34.103Z,98.30
2022-11-09T09:05:01.866Z,98.21
2022-11-09T09:07:30.899Z,96.46
2022-11-09T09:09:58.624Z,96.07
2022-11-09T09:12:26.337Z,96.16
2022-11-09T09:14:53.954Z,95.09
2022-11-09T09:17:21.604Z,92.62
2022-11-09T09:19:50.256Z,91.62
2022-11-09T09:22:18.124Z,91.52
2022-11-09T09:24:47.271Z,91.90
2022-11-09T09:27:15.108Z,92.85
2022-11-09T09:29:42.704Z,93.19
2022-11-09T09:32:10.289Z,93.03
2022-11-09T09:34:37.905Z,93.50
2022-11-09T09:37:05.546Z,94.13
2022-11-09T09:39:33.396Z,94.71
2022-11-09T09:42:06.751Z,94.01
2022-11-09T09:44:42.099Z,93.35
2022-11-09T09:47:14.176Z,93.16
2022-11-09T09:49:45.081Z,91.24
2022-11-09T09:52:22.250Z,89.85
2022-11-09T09:54:59.072Z,88.45
2022-11-09T09:57:31.029Z,86.35
2022-11-09T10:00:02.274Z,83.20
2022-11-09T10:02:31.883Z,79.57
2022-11-09T10:05:04.109Z,77.25
2022-11-09T10:07:38.758Z,74.29
2022-11-09T10:10:31.129Z,72.00
2022-11-09T10:13:15.907Z,58.96
2022-11-09T10:15:48.876Z,53.89
2022-11-09T10:18:34.573Z,53.86
2022-11-09T10:21:15.734Z,57.20
2022-11-09T10:23:58.392Z,61.99
2022-11-09T10:26:34.190Z,66.59
2022-11-09T10:29:20.469Z,69.93
2022-11-09T10:31:49.899Z,71.88
2022-11-09T10:34:19.992Z,72.51
2022-11-09T10:36:54.805Z,69.96
2022-11-09T10:39:25.420Z,66.72
2022-11-09T10:41:53.237Z,67.58
2022-11-09T10:44:22.197Z,69.08
2022-11-09T10:47:04.191Z,71.26
2022-11-09T10:49:32.158Z,71.87
2022-11-09T10:51:59.735Z,73.63
2022-11-09T10:54:31.215Z,72.75
2022-11-09T10:57:11.447Z,72.29
2022-11-09T10:59:50.321Z,73.49
2022-11-09T11:02:42.389Z,66.76
2022-11-09T11:05:37.360Z,63.92
2022-11-09T11:08:27.253Z,62.54
2022-11-09T11:11:44.641Z,64.88
2022-11-09T11:14:19.921Z,65.76
2022-11-09T11:16:52.814Z,67.79
2022-11-09T11:19:30.770Z,69.55
2022-11-09T11:22:22.537Z,71.58
2022-11-09T11:24:55.672Z,73.77
2022-11-09T11:27:28.619Z,75.08
2022-11-09T11:30:04.191Z,76.76
2022-11-09T11:32:33.579Z,79.32
2022-11-09T11:35:02.112Z,80.11
2022-11-09T11:37:40.249Z,80.60
2022-11-09T11:40:14.479Z,82.09
2022-11-09T11:42:59.964Z,82.52
2022-11-09T11:45:41.575Z,83.11
2022-11-09T11:48:32.865Z,83.62
2022-11-09T11:51:08.517Z,84.41
2022-11-09T11:53:55.060Z,85.11
2022-11-09T11:56:27.536Z,86.68
2022-11-09T11:59:11.075Z,86.60
2022-11-09T12:01:51.107Z,86.94
2022-11-09T12:04:35.891Z,87.01
2022-11-09T12:07:17.315Z,86.18
2022-11-09T12:10:17.090Z,86.20
2022-11-09T12:12:54.817Z,86.30
2022-11-09T12:15:32.785Z,86.41
2022-11-09T12:18:10.795Z,86.68
2022-11-09T12:20:49.627Z,86.09
2022-11-09T12:23:44.633Z,86.58
2022-11-09T12:26:25.557Z,86.78
2022-11-09T12:29:12.489Z,86.49
2022-11-09T12:31:52.767Z,86.34
2022-11-09T12:34:25.126Z,86.78
2022-11-09T12:36:58.295Z,86.92
2022-11-09T12:39:30.253Z,86.17
2022-11-09T12:42:04.706Z,86.00
2022-11-09T12:44:38.722Z,84.12
2022-11-09T12:47:15.384Z,79.96
2022-11-09T12:49:45.227Z,80.00
2022-11-09T12:52:16.665Z,77.78
2022-11-09T12:54:48.677Z,77.22
2022-11-09T12:57:22.497Z,77.01
2022-11-09T12:59:51.989Z,76.85
2022-11-09T13:02:31.133Z,76.13
2022-11-09T13:05:00.663Z,76.64
2022-11-09T13:07:47.025Z,77.17
2022-11-09T13:10:30.819Z,76.51
2022-11-09T13:13:19.927Z,76.38
2022-11-09T13:16:34.664Z,79.01
2022-11-09T13:19:02.365Z,81.00
2022-11-09T13:21:40.585Z,81.69
2022-11-09T13:24:53.679Z,82.81
2022-11-09T13:27:46.305Z,83.12
2022-11-09T13:30:50.995Z,83.67
2022-11-09T13:33:25.890Z,84.53
2022-11-09T13:36:18.846Z,85.18
2022-11-09T13:38:48.709Z,85.08
2022-11-09T13:41:42.162Z,84.59
2022-11-09T13:44:18.968Z,84.83
2022-11-09T13:46:48.698Z,84.03
2022-11-09T13:49:40.704Z,81.76
2022-11-09T13:52:46.580Z,80.79
2022-11-09T13:55:24.740Z,80.56
2022-11-09T13:57:53.618Z,80.55
2022-11-09T14:00:25.503Z,80.27
2022-11-09T14:02:54.749Z,80.43
2022-11-09T14:05:31.040Z,80.17
2022-11-09T14:08:01.994Z,80.67
2022-11-09T14:10:54.803Z,80.12
2022-11-09T14:13:40.982Z,79.34
2022-11-09T14:16:22.249Z,79.70
2022-11-09T14:19:01.576Z,79.46
2022-11-09T14:21:44.999Z,79.75
2022-11-09T14:24:17.745Z,79.58
2022-11-09T14:27:05.023Z,78.00
2022-11-09T14:29:33.185Z,77.27
2022-11-09T14:32:16.893Z,76.76
2022-11-09T14:34:44.552Z,76.93
2022-11-09T14:37:14.782Z,76.95
2022-11-09T14:39:42.477Z,77.25
2022-11-09T14:42:18.379Z,76.44
2022-11-09T14:44:47.558Z,75.08
2022-11-09T14:47:19.200Z,75.53
2022-11-09T14:49:47.170Z,76.30
2022-11-09T14:52:18.908Z,76.72
2022-11-09T14:54:48.523Z,76.88
2022-11-09T14:57:18.076Z,75.14
2022-11-09T14:59:46.406Z,75.46
2022-11-09T15:02:18.503Z,75.41
2022-11-09T15:04:54.322Z,75.95
2022-11-09T15:07:25.447Z,75.18
2022-11-09T15:09:57.928Z,76.22
2022-11-09T15:12:26.422Z,76.28
2022-11-09T15:14:56.825Z,75.38
2022-11-09T15:17:28.262Z,76.67
2022-11-09T15:19:58.602Z,76.75
2022-11-09T15:22:52.872Z,76.74
2022-11-09T15:25:27.618Z,76.26
2022-11-09T15:28:05.629Z,76.35
2022-11-09T15:30:37.292Z,76.67
2022-11-09T15:33:21.015Z,76.42
2022-11-09T15:35:59.243Z,75.85
2022-11-09T15:38:36.468Z,76.26
2022-11-09T15:41:07.110Z,76.97
2022-11-09T15:43:35.160Z,77.30
2022-11-09T15:46:03.992Z,76.88
2022-11-09T15:48:34.614Z,76.81
2022-11-09T15:51:04.214Z,75.65
2022-11-09T15:53:32.982Z,76.16
2022-11-09T15:56:01.152Z,76.33
2022-11-09T15:58:28.825Z,76.90
2022-11-09T16:00:56.456Z,77.11
2022-11-09T16:03:27.334Z,77.72
2022-11-09T16:05:59.356Z,77.17
2022-11-09T16:08:26.988Z,77.06
2022-11-09T16:10:54.602Z,77.45
2022-11-09T16:13:22.458Z,77.49
2022-11-09T16:15:50.080Z,77.05
2022-11-09T16:18:24.526Z,78.09
2022-11-09T16:20:53.856Z,78.01
2022-11-09T16:23:22.883Z,78.28
2022-11-09T16:25:50.482Z,78.67
2022-11-09T16:28:19.540Z,79.20
2022-11-09T16:30:47.715Z,78.71
2022-11-09T16:33:15.421Z,78.94
2022-11-09T16:35:43.463Z,78.43
2022-11-09T16:38:11.731Z,78.28
2022-11-09T16:40:41.038Z,78.54
2022-11-09T16:43:08.697Z,78.71
2022-11-09T16:45:36.594Z,79.60
2022-11-09T16:48:06.597Z,79.37
2022-11-09T16:50:34.372Z,79.77
2022-11-09T16:53:02.122Z,80.10
2022-11-09T16:55:30.022Z,80.17
2022-11-09T16:57:59.934Z,79.64
2022-11-09T17:00:42.735Z,79.70
2022-11-09T17:03:17.373Z,79.87
2022-11-09T17:05:45.188Z,80.87
2022-11-09T17:08:13.711Z,80.30
2022-11-09T17:10:43.099Z,80.60
2022-11-09T17:13:15.476Z,81.47
2022-11-09T17:15:44.566Z,82.23
2022-11-09T17:18:12.952Z,81.70
2022-11-09T17:20:44.510Z,82.09
2022-11-09T17:23:14.257Z,81.88
2022-11-09T17:25:42.291Z,81.99
2022-11-09T17:28:10.364Z,81.07
2022-11-09T17:30:42.288Z,81.43
2022-11-09T17:33:10.031Z,81.08
2022-11-09T17:35:37.961Z,79.97
2022-11-09T17:38:05.779Z,80.02
2022-11-09T17:40:33.918Z,79.70
2022-11-09T17:43:02.373Z,78.89
2022-11-09T17:45:30.192Z,79.13
2022-11-09T17:48:01.702Z,79.03
2022-11-09T17:50:33.196Z,79.89
2022-11-09T17:53:01.169Z,80.32
2022-11-09T17:55:29.394Z,80.20
2022-11-09T17:57:59.823Z,79.92
2022-11-09T18:00:27.745Z,80.63
2022-11-09T18:02:56.490Z,81.22
2022-11-09T18:05:26.025Z,81.59
2022-11-09T18:07:53.670Z,81.20
2022-11-09T18:10:21.334Z,81.57
2022-11-09T18:12:51.428Z,82.34
2022-11-09T18:15:19.010Z,82.76
2022-11-09T18:17:46.909Z,82.70
2022-11-09T18:20:14.820Z,83.28
2022-11-09T18:22:43.857Z,83.92
2022-11-09T18:25:11.611Z,83.57
2022-11-09T18:27:39.438Z,83.74
2022-11-09T18:30:08.620Z,83.25
2022-11-09T18:32:36.353Z,83.26
2022-11-09T18:35:05.508Z,83.11
2022-11-09T18:37:34.720Z,83.27
2022-11-09T18:40:04.186Z,82.99
2022-11-09T18:42:32.099Z,83.35
2022-11-09T18:45:00.343Z,83.13
2022-11-09T18:47:28.726Z,82.99
2022-11-09T18:49:56.493Z,82.40
2022-11-09T18:52:24.164Z,81.88
2022-11-09T18:54:54.653Z,81.75
2022-11-09T18:57:23.894Z,82.55
2022-11-09T18:59:51.985Z,82.31
2022-11-09T19:02:19.861Z,81.97
2022-11-09T19:04:48.325Z,81.73
2022-11-09T19:07:16.328Z,81.74
2022-11-09T19:09:44.207Z,82.46
2022-11-09T19:12:12.332Z,82.49
2022-11-09T19:14:41.814Z,82.22
2022-11-09T19:17:13.291Z,83.14
2022-11-09T19:19:42.199Z,82.70
2022-11-09T19:22:17.160Z,82.89
2022-11-09T19:24:45.364Z,82.64
2022-11-09T19:27:13.141Z,82.69
2022-11-09T19:29:42.342Z,83.51
2022-11-09T19:32:10.714Z,83.55
2022-11-09T19:34:38.322Z,83.64
2022-11-09T19:37:05.905Z,82.96
2022-11-09T19:39:35.358Z,83.50
2022-11-09T19:42:03.891Z,83.69
2022-11-09T19:44:31.620Z,83.25
2022-11-09T19:47:00.783Z,83.59
2022-11-09T19:49:28.632Z,82.95
2022-11-09T19:51:56.526Z,83.42
2022-11-09T19:54:24.496Z,83.89
2022-11-09T19:56:52.241Z,83.73
2022-11-09T19:59:20.790Z,84.21
2022-11-09T20:01:48.507Z,83.82
2022-11-09T20:04:17.472Z,83.47
2022-11-09T20:06:45.356Z,83.71
2022-11-09T20:09:15.136Z,83.43
2022-11-09T20:12:00.557Z,84.02
2022-11-09T20:14:28.209Z,83.82
2022-11-09T20:16:59.282Z,84.08
2022-11-09T20:19:32.583Z,84.33
2022-11-09T20:22:00.413Z,83.55
2022-11-09T20:24:28.139Z,83.98
2022-11-09T20:26:56.171Z,83.88
2022-11-09T20:29:23.934Z,84.30
2022-11-09T20:31:51.588Z,83.54
2022-11-09T20:34:19.484Z,84.42
2022-11-09T20:36:51.175Z,84.49
2022-11-09T20:39:19.139Z,84.68
2022-11-09T20:41:46.885Z,83.75
2022-11-09T20:44:14.675Z,83.87
2022-11-09T20:46:42.496Z,84.16
2022-11-09T20:49:10.643Z,84.60
2022-11-09T20:51:38.681Z,84.54
2022-11-09T20:54:08.077Z,84.74
2022-11-09T20:56:37.966Z,84.65
2022-11-09T20:59:08.159Z,84.88
2022-11-09T21:01:35.976Z,85.00
2022-11-09T21:04:04.067Z,84.90
2022-11-09T21:06:32.162Z,85.17
2022-11-09T21:09:01.276Z,85.49
2022-11-09T21:11:35.722Z,85.55
2022-11-09T21:14:04.346Z,85.08
2022-11-09T21:16:32.000Z,85.55
2022-11-09T21:18:59.626Z,85.41
2022-11-09T21:21:28.739Z,85.48
2022-11-09T21:24:17.357Z,85.47
2022-11-09T21:27:03.712Z,85.47
2022-11-09T21:29:49.309Z,85.59
2022-11-09T21:32:17.367Z,85.59
2022-11-09T21:34:45.172Z,85.41
2022-11-09T21:37:14.917Z,85.60
2022-11-09T21:39:43.208Z,84.90
2022-11-09T21:42:12.438Z,85.26
2022-11-09T21:44:40.270Z,85.52
2022-11-09T21:47:08.977Z,85.34
2022-11-09T21:49:36.752Z,85.89
2022-11-09T21:52:04.816Z,85.79
2022-11-09T21:54:32.550Z,84.93
2022-11-09T21:57:00.257Z,85.63
2022-11-09T21:59:29.308Z,85.21
2022-11-09T22:01:57.018Z,84.81
2022-11-09T22:04:24.815Z,85.09
2022-11-09T22:06:52.635Z,84.38
2022-11-09T22:09:20.354Z,84.33
2022-11-09T22:12:05.348Z,85.17
2022-11-09T22:14:52.118Z,85.02
2022-11-09T22:17:19.747Z,85.60
2022-11-09T22:20:16.521Z,84.71
2022-11-09T22:22:45.266Z,85.34
2022-11-09T22:25:12.859Z,84.48
2022-11-09T22:27:40.430Z,85.10
2022-11-09T22:30:10.727Z,85.01
2022-11-09T22:32:38.531Z,84.56
2022-11-09T22:35:06.604Z,84.63
2022-11-09T22:37:34.337Z,84.19
2022-11-09T22:40:02.031Z,84.14
2022-11-09T22:42:29.734Z,83.92
2022-11-09T22:44:57.505Z,84.03
2022-11-09T22:47:26.501Z,83.78
2022-11-09T22:49:54.211Z,84.59
2022-11-09T22:52:21.887Z,83.92
2022-11-09T22:54:49.594Z,84.46
2022-11-09T22:57:17.209Z,84.63
2022-11-09T22:59:44.843Z,84.64
2022-11-09T23:02:12.569Z,84.33
2022-11-09T23:04:41.563Z,84.51
2022-11-09T23:07:09.310Z,84.08
2022-11-09T23:09:36.939Z,84.50
2022-11-09T23:12:04.857Z,84.88
2022-11-09T23:14:50.210Z,84.59
2022-11-09T23:17:31.867Z,84.53
2022-11-09T23:20:00.983Z,84.31
2022-11-09T23:22:28.924Z,84.41
2022-11-09T23:25:13.986Z,84.28
2022-11-09T23:27:41.726Z,84.07
2022-11-09T23:30:10.059Z,84.01
2022-11-09T23:32:37.976Z,84.91
2022-11-09T23:35:08.520Z,85.82
2022-11-09T23:37:36.281Z,85.89
2022-11-09T23:40:04.655Z,85.41
2022-11-09T23:42:32.465Z,85.74
2022-11-09T23:45:00.277Z,86.28
2022-11-09T23:47:28.053Z,86.69
2022-11-09T23:49:55.813Z,87.32
2022-11-09T23:52:24.909Z,87.28
2022-11-09T23:54:52.658Z,87.35
2022-11-09T23:57:20.816Z,87.72
2022-11-09T23:59:48.635Z,88.50
